Time;durP1;ratioP1;P1;durP2;ratioP2;P2;SDS_P1;SDS_P2;PMS_P1;PMS_P2;Temp;Humidity;BMP_temperature;BMP_pressure;BME280_temperature;BME280_humidity;BME280_pressure;Samples;Min_cycle;Max_cycle;Signal;HPM_P1;HPM_P2
2021/09/30 00:01:10;;;;;;;49.08;22.02;;;;;;;6.22;82.81;95437.53;1716665;82;21559;-55
2021/09/30 00:03:37;;;;;;;55.52;23.60;;;;;;;6.28;82.88;95430.45;1715881;82;21419;-55
2021/09/30 00:06:03;;;;;;;61.90;26.57;;;;;;;6.36;82.87;95436.64;1727465;82;21466;-55
2021/09/30 00:08:32;;;;;;;64.40;25.57;;;;;;;6.42;82.94;95435.80;1723660;82;21507;-54
2021/09/30 00:11:04;;;;;;;48.63;21.23;;;;;;;6.50;82.98;95434.55;1720233;82;21435;-54
2021/09/30 00:16:21;;;;;;;52.20;24.33;;;;;;;6.58;82.66;95435.27;1708855;82;21042;-54
2021/09/30 00:34:57;;;;;;;37.15;20.25;;;;;;;6.81;82.96;95422.55;1723474;82;21830;-55
2021/09/30 00:45:40;;;;;;;35.00;18.45;;;;;;;6.83;83.45;95420.75;1722051;82;21034;-55
2021/09/30 00:48:15;;;;;;;30.15;17.07;;;;;;;6.81;83.54;95417.66;1724215;82;21143;-55
2021/09/30 00:50:51;;;;;;;27.80;16.62;;;;;;;6.86;83.72;95420.73;1724721;82;20968;-54
2021/09/30 01:52:10;;;;;;;19.75;12.68;;;;;;;7.39;82.11;95416.80;1722937;82;21824;-56
2021/09/30 02:28:35;;;;;;;17.40;11.83;;;;;;;7.31;82.17;95424.92;1682850;82;20993;-54
2021/09/30 02:58:14;;;;;;;23.42;15.58;;;;;;;7.57;81.86;95423.61;1687257;84;20971;-55
2021/09/30 03:00:50;;;;;;;39.05;15.98;;;;;;;7.63;81.90;95421.16;1667108;85;21007;-55
2021/09/30 03:03:21;;;;;;;23.87;15.18;;;;;;;7.67;81.73;95426.02;1680854;85;21082;-54
2021/09/30 03:05:53;;;;;;;36.85;14.87;;;;;;;7.72;81.66;95426.31;1668762;85;21830;-55
2021/09/30 03:08:17;;;;;;;24.35;14.53;;;;;;;7.78;81.58;95428.80;1689196;84;20975;-56
2021/09/30 03:10:50;;;;;;;28.98;14.90;;;;;;;7.83;81.55;95423.42;1691541;84;21102;-56
2021/09/30 03:13:15;;;;;;;23.87;14.80;;;;;;;7.89;81.46;95431.38;1684375;85;20963;-56
2021/09/30 03:15:51;;;;;;;27.50;15.63;;;;;;;7.92;81.32;95423.09;1668188;85;21475;-55
2021/09/30 03:18:26;;;;;;;27.15;15.13;;;;;;;7.93;81.25;95423.30;1637426;86;21119;-54
2021/09/30 03:20:49;;;;;;;18.37;14.13;;;;;;;7.97;81.41;95428.13;1642060;87;21024;-54
2021/09/30 03:23:21;;;;;;;22.32;13.25;;;;;;;8.04;81.23;95419.80;1643194;87;21122;-56
2021/09/30 03:25:50;;;;;;;24.07;13.78;;;;;;;8.18;81.15;95429.21;1643690;87;21587;-55
2021/09/30 03:28:19;;;;;;;21.35;13.75;;;;;;;8.35;80.91;95425.41;1646576;87;21444;-55
2021/09/30 03:30:46;;;;;;;24.50;14.80;;;;;;;8.50;80.45;95424.00;1643216;87;21144;-55
2021/09/30 03:33:13;;;;;;;25.82;14.75;;;;;;;8.59;79.93;95422.85;1643584;87;20959;-56
2021/09/30 03:35:51;;;;;;;25.10;13.85;;;;;;;8.59;79.50;95422.85;1624144;87;21138;-55
2021/09/30 03:38:21;;;;;;;19.90;14.70;;;;;;;8.60;79.29;95418.92;1643580;87;21023;-55
2021/09/30 03:40:48;;;;;;;21.42;14.03;;;;;;;8.61;79.25;95422.45;1637974;87;21039;-56
2021/09/30 03:43:19;;;;;;;23.90;14.53;;;;;;;8.61;79.07;95414.98;1643114;87;21179;-54
2021/09/30 03:45:45;;;;;;;18.77;13.88;;;;;;;8.59;78.92;95417.37;1643751;87;21440;-54
2021/09/30 03:48:17;;;;;;;25.40;16.10;;;;;;;8.62;79.02;95415.77;1642639;87;21135;-54
2021/09/30 03:56:22;;;;;;;20.52;15.03;;;;;;;8.69;78.75;95423.28;1690065;84;21688;-55
2021/09/30 04:01:21;;;;;;;24.40;15.03;;;;;;;8.72;78.45;95423.81;1689778;84;21047;-55
2021/09/30 04:03:48;;;;;;;23.47;14.05;;;;;;;8.78;78.42;95426.24;1689593;85;21448;-56
2021/09/30 04:06:14;;;;;;;21.30;13.45;;;;;;;8.77;78.32;95424.70;1690040;85;20979;-54
2021/09/30 04:08:41;;;;;;;21.17;13.88;;;;;;;8.77;78.39;95423.94;1689571;85;22084;-54
2021/09/30 04:11:10;;;;;;;22.75;14.15;;;;;;;8.74;78.47;95424.17;1689200;85;20970;-54
2021/09/30 04:13:36;;;;;;;20.62;14.03;;;;;;;8.74;78.70;95418.68;1688690;85;21006;-55
2021/09/30 04:16:04;;;;;;;22.95;14.35;;;;;;;8.84;78.65;95423.19;1689543;85;20951;-55
2021/09/30 04:18:32;;;;;;;25.82;15.70;;;;;;;8.89;78.44;95425.47;1689427;84;21046;-56
2021/09/30 04:20:59;;;;;;;32.33;18.35;;;;;;;8.97;78.54;95422.76;1689312;85;21157;-56
2021/09/30 04:23:25;;;;;;;32.08;17.27;;;;;;;9.05;77.96;95420.08;1689444;85;20975;-56
2021/09/30 04:25:53;;;;;;;30.43;17.62;;;;;;;9.05;77.71;95426.33;1689910;84;21030;-56
2021/09/30 04:28:19;;;;;;;25.37;16.77;;;;;;;8.99;77.58;95427.23;1689542;85;21017;-56
2021/09/30 04:30:48;;;;;;;30.25;17.15;;;;;;;8.97;77.62;95433.16;1689570;84;21545;-56
2021/09/30 04:33:17;;;;;;;26.62;16.67;;;;;;;8.93;77.64;95435.19;1689127;84;21247;-56
2021/09/30 04:35:44;;;;;;;31.82;16.07;;;;;;;8.91;77.87;95432.68;1689929;85;20951;-55
2021/09/30 04:38:11;;;;;;;40.55;17.00;;;;;;;8.89;77.82;95438.58;1689604;85;21006;-56
2021/09/30 04:40:38;;;;;;;24.40;15.38;;;;;;;8.85;77.77;95435.73;1689739;84;21446;-56
2021/09/30 04:43:04;;;;;;;23.38;14.60;;;;;;;8.78;77.94;95435.84;1689671;85;21002;-56
2021/09/30 04:45:32;;;;;;;24.85;14.70;;;;;;;8.74;78.05;95428.28;1689561;84;21162;-56
2021/09/30 04:48:01;;;;;;;20.12;14.05;;;;;;;8.68;78.11;95427.22;1688445;84;21026;-56
2021/09/30 04:50:28;;;;;;;29.42;18.37;;;;;;;8.62;78.47;95426.73;1689479;85;20979;-55
2021/09/30 04:53:00;;;;;;;21.05;14.53;;;;;;;8.67;78.87;95427.04;1689532;84;21565;-56
2021/09/30 04:55:23;;;;;;;26.62;16.17;;;;;;;8.77;78.71;95428.05;1689249;84;21430;-56
2021/09/30 04:57:50;;;;;;;22.90;14.68;;;;;;;8.81;78.73;95428.14;1689456;84;21128;-55
2021/09/30 05:00:17;;;;;;;26.00;15.10;;;;;;;8.85;78.68;95426.14;1689455;85;20967;-56
2021/09/30 05:02:52;;;;;;;30.20;16.50;;;;;;;8.89;78.61;95426.23;1686688;85;20995;-56
2021/09/30 05:05:19;;;;;;;25.20;15.30;;;;;;;8.93;78.28;95426.17;1689275;85;21095;-56
2021/09/30 05:07:47;;;;;;;34.27;18.07;;;;;;;8.98;78.46;95428.42;1689493;85;21061;-56
2021/09/30 05:10:18;;;;;;;27.73;16.00;;;;;;;9.05;78.31;95431.05;1689180;85;21454;-58
2021/09/30 05:12:42;;;;;;;26.75;16.37;;;;;;;9.09;78.03;95429.02;1688893;84;21067;-57
2021/09/30 05:15:11;;;;;;;26.60;18.35;;;;;;;9.11;78.15;95433.48;1689590;85;21062;-57
2021/09/30 05:17:40;;;;;;;24.98;15.90;;;;;;;9.16;77.87;95438.48;1668107;85;21482;-56
2021/09/30 05:20:10;;;;;;;26.35;15.23;;;;;;;9.25;77.79;95440.08;1681655;83;20935;-56
2021/09/30 05:22:38;;;;;;;21.12;14.53;;;;;;;9.35;77.22;95443.99;1672341;83;21169;-60
2021/09/30 05:25:07;;;;;;;21.25;12.95;;;;;;;9.41;77.20;95447.03;1662556;85;21443;-56
2021/09/30 05:27:34;;;;;;;24.87;12.78;;;;;;;9.53;76.87;95447.17;1658763;84;21574;-57
2021/09/30 05:30:01;;;;;;;24.90;13.95;;;;;;;9.50;76.19;95449.97;1696400;83;21470;-56
2021/09/30 05:32:30;;;;;;;25.80;13.70;;;;;;;9.32;76.31;95452.29;1696092;83;21047;-57
2021/09/30 05:34:58;;;;;;;44.42;15.38;;;;;;;9.20;76.72;95459.19;1700597;83;21238;-57
2021/09/30 05:37:29;;;;;;;37.05;12.95;;;;;;;9.15;76.91;95457.52;1701511;82;21113;-57
2021/09/30 05:39:56;;;;;;;48.28;13.32;;;;;;;9.16;77.25;95457.69;1709425;82;21143;-56
2021/09/30 05:42:24;;;;;;;45.50;17.02;;;;;;;9.17;77.35;95462.77;1668074;83;21550;-58
2021/09/30 05:44:52;;;;;;;34.27;17.00;;;;;;;9.22;77.58;95462.28;1675093;83;21118;-56
2021/09/30 05:47:20;;;;;;;40.20;19.52;;;;;;;9.32;77.52;95460.53;1693230;82;21134;-59
2021/09/30 05:49:47;;;;;;;48.90;20.35;;;;;;;9.39;77.33;95460.38;1699039;82;21019;-59
2021/09/30 05:52:19;;;;;;;47.67;19.02;;;;;;;9.44;77.44;95464.03;1684552;82;21071;-57
2021/09/30 05:55:01;;;;;;;19.50;10.30;;;;;;;9.56;77.44;95457.89;1691414;82;20934;-57
2021/09/30 05:57:32;;;;;;;50.73;12.70;;;;;;;9.71;76.90;95464.65;1697990;82;21667;-58
2021/09/30 06:00:11;;;;;;;13.35;8.23;;;;;;;9.71;76.04;95457.19;1695506;82;21155;-57
2021/09/30 06:13:22;;;;;;;11.73;7.30;;;;;;;9.83;74.85;95456.53;1587207;86;21091;-58
2021/09/30 06:15:45;;;;;;;29.52;10.60;;;;;;;9.94;74.65;95463.95;1645285;84;21066;-58
2021/09/30 06:18:13;;;;;;;17.73;10.35;;;;;;;9.97;74.54;95459.59;1650272;85;21565;-58
2021/09/30 06:20:43;;;;;;;13.00;8.83;;;;;;;10.04;74.35;95462.21;1644488;84;21013;-59
2021/09/30 06:23:11;;;;;;;13.88;8.93;;;;;;;10.01;74.10;95456.95;1646930;86;21622;-58
2021/09/30 06:25:38;;;;;;;19.92;7.95;;;;;;;10.02;74.20;95457.74;1640824;85;21544;-59
2021/09/30 06:28:06;;;;;;;20.25;7.55;;;;;;;10.14;74.04;95451.59;1642182;86;21066;-57
2021/09/30 06:30:35;;;;;;;18.12;7.40;;;;;;;10.23;73.65;95454.52;1638565;85;21047;-59
2021/09/30 06:33:04;;;;;;;23.22;12.55;;;;;;;10.26;73.40;95455.81;1637938;84;21096;-56
2021/09/30 06:35:35;;;;;;;27.27;10.05;;;;;;;10.30;73.31;95458.47;1625227;85;21028;-56
2021/09/30 06:38:03;;;;;;;14.07;8.85;;;;;;;10.32;73.18;95454.72;1646022;85;21108;-58
2021/09/30 06:40:31;;;;;;;16.30;8.95;;;;;;;10.33;73.19;95454.27;1637846;85;21015;-58
2021/09/30 06:42:58;;;;;;;17.12;8.68;;;;;;;10.43;73.14;95457.98;1614845;84;21015;-57
2021/09/30 06:45:31;;;;;;;26.25;9.08;;;;;;;10.47;73.14;95455.91;1638072;85;21016;-57
2021/09/30 06:48:09;;;;;;;14.13;7.55;;;;;;;10.57;73.04;95452.91;1608847;85;21549;-57
2021/09/30 06:50:38;;;;;;;12.18;8.53;;;;;;;10.66;72.74;95455.05;1639448;85;21891;-60
2021/09/30 06:53:14;;;;;;;18.77;8.73;;;;;;;10.72;72.67;95455.48;1644953;84;21091;-57
2021/09/30 06:56:05;;;;;;;15.83;9.15;;;;;;;10.83;72.48;95459.52;1641306;85;21384;-56
2021/09/30 06:58:47;;;;;;;19.25;7.80;;;;;;;10.98;72.01;95462.09;1629786;86;20995;-57
2021/09/30 07:01:23;;;;;;;11.78;7.55;;;;;;;11.04;71.34;95456.26;1683036;83;21114;-57
2021/09/30 07:04:08;;;;;;;14.45;6.97;;;;;;;10.97;71.33;95464.68;1683009;82;21123;-56
2021/09/30 07:06:43;;;;;;;13.30;7.00;;;;;;;11.10;71.76;95462.78;1675675;83;21054;-57
2021/09/30 07:09:11;;;;;;;12.05;7.37;;;;;;;11.27;71.27;95461.55;1697499;82;21049;-57
2021/09/30 07:11:38;;;;;;;19.05;7.20;;;;;;;11.41;70.79;95459.80;1694526;83;21135;-58
2021/09/30 07:14:05;;;;;;;15.75;7.20;;;;;;;11.54;70.40;95457.84;1688439;83;21080;-58
2021/09/30 07:16:32;;;;;;;9.15;7.00;;;;;;;11.67;69.94;95461.45;1709652;82;21395;-58
2021/09/30 07:19:01;;;;;;;12.68;7.10;;;;;;;11.76;69.42;95467.11;1692502;83;21534;-60
2021/09/30 07:21:31;;;;;;;11.40;7.92;;;;;;;11.83;69.38;95459.22;1690698;82;21060;-57
2021/09/30 07:23:58;;;;;;;13.28;8.33;;;;;;;11.90;69.57;95460.41;1692608;82;21553;-58
2021/09/30 07:26:24;;;;;;;17.25;10.23;;;;;;;11.94;69.58;95459.08;1696390;83;21045;-57
2021/09/30 07:28:51;;;;;;;17.02;8.48;;;;;;;11.96;69.65;95462.78;1683411;83;21148;-61
2021/09/30 07:31:19;;;;;;;9.73;7.28;;;;;;;12.00;69.58;95462.86;1705939;82;21089;-59
2021/09/30 07:33:47;;;;;;;9.30;7.83;;;;;;;12.07;69.48;95462.64;1685249;83;21091;-58
2021/09/30 07:36:13;;;;;;;11.43;7.53;;;;;;;12.13;69.11;95455.98;1707320;83;21515;-58
2021/09/30 07:38:44;;;;;;;12.13;7.70;;;;;;;12.17;69.10;95458.80;1686441;83;21049;-60
2021/09/30 07:41:11;;;;;;;10.82;6.70;;;;;;;12.22;69.05;95460.22;1676366;83;21273;-60
2021/09/30 07:43:38;;;;;;;11.08;6.75;;;;;;;12.27;68.35;95459.69;1679414;84;21022;-61
2021/09/30 07:46:06;;;;;;;11.40;8.25;;;;;;;12.23;68.21;95457.03;1696926;83;21018;-59
2021/09/30 07:48:33;;;;;;;8.80;7.10;;;;;;;12.28;68.41;95445.44;1705790;83;21051;-65
2021/09/30 07:51:00;;;;;;;10.78;7.60;;;;;;;12.37;68.47;95446.16;1688861;83;21077;-58
2021/09/30 07:53:29;;;;;;;12.53;7.08;;;;;;;12.43;67.87;95447.94;1684056;83;22255;-59
2021/09/30 07:55:56;;;;;;;12.18;6.33;;;;;;;12.44;67.78;95439.06;1701857;82;21502;-59
2021/09/30 07:58:24;;;;;;;10.13;6.28;;;;;;;12.42;67.80;95439.49;1697317;83;21108;-57
2021/09/30 08:00:53;;;;;;;9.25;7.37;;;;;;;12.42;67.93;95438.11;1699706;82;21093;-58
2021/09/30 08:03:19;;;;;;;9.25;6.95;;;;;;;12.40;68.27;95430.88;1690134;83;21354;-58
2021/09/30 08:05:47;;;;;;;13.55;7.30;;;;;;;12.40;68.23;95437.00;1662758;83;21148;-58
2021/09/30 08:08:14;;;;;;;11.33;7.60;;;;;;;12.37;68.34;95439.27;1686495;82;21032;-59
2021/09/30 08:10:41;;;;;;;11.48;7.70;;;;;;;12.36;68.27;95436.34;1695654;82;21064;-59
2021/09/30 08:13:10;;;;;;;10.72;6.85;;;;;;;12.37;68.42;95431.77;1684626;83;21110;-59
2021/09/30 08:15:38;;;;;;;11.93;7.25;;;;;;;12.40;68.76;95430.88;1698867;82;21023;-57
2021/09/30 08:18:06;;;;;;;10.23;7.53;;;;;;;12.47;68.71;95433.41;1708827;82;21159;-63
2021/09/30 08:20:34;;;;;;;11.70;7.67;;;;;;;12.55;68.34;95427.22;1701563;83;21167;-57
2021/09/30 08:23:01;;;;;;;9.70;7.78;;;;;;;12.67;68.27;95420.14;1699240;82;21562;-60
2021/09/30 08:25:28;;;;;;;14.13;7.58;;;;;;;12.76;68.23;95430.70;1676949;82;20982;-63
2021/09/30 08:27:55;;;;;;;11.12;7.53;;;;;;;12.85;68.22;95424.47;1699368;82;21123;-59
2021/09/30 08:30:22;;;;;;;11.30;7.60;;;;;;;12.95;67.95;95424.77;1676563;83;21152;-60
2021/09/30 08:32:50;;;;;;;10.70;6.90;;;;;;;13.02;67.71;95418.41;1678686;83;21087;-58
2021/09/30 08:35:17;;;;;;;12.30;8.23;;;;;;;13.09;67.47;95424.30;1679395;82;21102;-57
2021/09/30 08:37:44;;;;;;;15.25;9.15;;;;;;;13.15;67.55;95415.00;1668594;84;21114;-61
2021/09/30 08:40:14;;;;;;;13.40;7.92;;;;;;;13.28;67.62;95416.33;1689917;82;21078;-59
2021/09/30 08:42:44;;;;;;;10.03;7.45;;;;;;;13.49;67.39;95412.81;1684107;83;21239;-61
2021/09/30 08:45:11;;;;;;;11.08;8.00;;;;;;;13.70;66.77;95408.67;1675238;83;21066;-59
2021/09/30 08:47:38;;;;;;;11.45;7.40;;;;;;;13.86;66.56;95406.30;1680256;83;21122;-59
2021/09/30 08:50:09;;;;;;;9.03;7.00;;;;;;;14.03;66.31;95403.48;1689988;82;21076;-59
2021/09/30 08:52:41;;;;;;;14.13;7.12;;;;;;;14.20;66.08;95400.05;1703453;82;21723;-59
2021/09/30 08:55:09;;;;;;;10.10;7.33;;;;;;;14.34;65.37;95401.52;1680676;83;21157;-61
2021/09/30 08:57:37;;;;;;;17.00;8.10;;;;;;;14.43;65.03;95400.16;1688406;82;21504;-62
2021/09/30 09:00:08;;;;;;;15.70;8.45;;;;;;;14.51;64.63;95405.75;1660239;83;21100;-65
2021/09/30 09:02:47;;;;;;;15.60;8.35;;;;;;;14.64;64.65;95396.69;1699441;82;21119;-69
2021/09/30 09:05:19;;;;;;;9.90;7.17;;;;;;;14.84;64.34;95395.66;1657128;84;21062;-63
2021/09/30 09:08:00;;;;;;;16.40;9.95;;;;;;;14.99;63.92;95398.00;1711232;82;21209;-61
2021/09/30 09:10:37;;;;;;;9.85;6.78;;;;;;;15.14;63.72;95400.34;1690120;83;21059;-58
2021/09/30 09:13:12;;;;;;;9.13;7.05;;;;;;;15.31;63.49;95391.13;1692868;83;21132;-60
2021/09/30 09:15:43;;;;;;;14.78;7.20;;;;;;;15.42;62.85;95396.99;1691664;83;21857;-63
2021/09/30 09:18:21;;;;;;;16.40;7.60;;;;;;;15.50;61.93;95385.13;1689927;82;21188;-60
2021/09/30 09:21:07;;;;;;;14.45;7.70;;;;;;;15.54;61.71;95395.44;1701833;82;21119;-63
2021/09/30 09:23:41;;;;;;;10.93;6.72;;;;;;;15.69;61.71;95389.42;1689416;82;20999;-61
2021/09/30 09:26:17;;;;;;;10.35;6.87;;;;;;;15.85;60.89;95389.70;1672741;83;21080;-61
2021/09/30 09:29:16;;;;;;;10.63;7.20;;;;;;;16.00;61.04;95385.05;1688808;83;21330;-59
2021/09/30 09:31:48;;;;;;;8.65;6.25;;;;;;;16.24;60.55;95387.31;1690216;83;21020;-63
2021/09/30 09:34:28;;;;;;;14.53;7.17;;;;;;;16.43;60.32;95377.07;1684722;82;21134;-63
2021/09/30 09:37:19;;;;;;;12.88;7.08;;;;;;;16.64;59.72;95380.21;1682380;83;21020;-62
2021/09/30 09:39:47;;;;;;;11.57;7.85;;;;;;;17.02;59.93;95381.08;1691670;82;21569;-60
2021/09/30 09:42:18;;;;;;;10.72;7.25;;;;;;;17.54;58.22;95372.67;1683000;83;21040;-61
2021/09/30 09:44:58;;;;;;;9.93;6.83;;;;;;;17.97;56.76;95367.16;1682246;82;21012;-60
2021/09/30 09:47:31;;;;;;;10.38;6.90;;;;;;;18.40;56.40;95367.78;1693760;82;21150;-59
2021/09/30 09:50:21;;;;;;;7.92;6.33;;;;;;;19.01;55.49;95369.48;1700923;82;21132;-59
2021/09/30 09:52:58;;;;;;;12.23;7.53;;;;;;;19.63;54.51;95369.16;1689326;82;21183;-60
2021/09/30 09:55:37;;;;;;;15.83;7.22;;;;;;;20.27;52.00;95368.95;1697183;82;21027;-59
2021/09/30 09:58:14;;;;;;;9.95;5.65;;;;;;;20.76;50.80;95370.60;1693621;82;21036;-62
2021/09/30 10:00:52;;;;;;;6.97;5.40;;;;;;;21.27;49.06;95361.39;1700575;81;21792;-58
2021/09/30 10:03:35;;;;;;;12.43;6.20;;;;;;;21.72;48.90;95365.17;1679642;82;21042;-65
2021/09/30 10:06:05;;;;;;;10.78;5.20;;;;;;;22.15;48.35;95354.70;1689571;82;21067;-60
2021/09/30 10:08:33;;;;;;;7.55;5.45;;;;;;;22.59;47.30;95363.16;1685185;83;21090;-59
2021/09/30 10:11:01;;;;;;;4.92;4.42;;;;;;;23.08;45.89;95358.92;1642495;85;21607;-58
2021/09/30 10:13:31;;;;;;;20.45;11.18;;;;;;;23.56;44.68;95360.70;1655536;85;21128;-57
2021/09/30 10:15:58;;;;;;;10.20;6.15;;;;;;;23.89;44.04;95359.17;1637128;86;21084;-58
2021/09/30 10:18:28;;;;;;;8.90;5.45;;;;;;;24.20;43.29;95353.86;1642246;86;21554;-58
2021/09/30 10:20:57;;;;;;;9.63;5.15;;;;;;;24.37;41.21;95350.30;1688166;83;21638;-57
2021/09/30 10:23:30;;;;;;;6.95;4.53;;;;;;;24.39;41.54;95353.34;1691055;83;21050;-56
2021/09/30 10:25:59;;;;;;;6.72;5.78;;;;;;;24.61;42.19;95348.23;1687782;83;21781;-60
2021/09/30 10:28:27;;;;;;;14.95;9.33;;;;;;;24.92;41.33;95356.16;1681885;83;21029;-56
2021/09/30 10:30:54;;;;;;;12.58;5.50;;;;;;;25.25;40.84;95355.83;1687129;84;21051;-57
2021/09/30 10:33:24;;;;;;;6.10;4.85;;;;;;;25.66;40.79;95347.95;1695525;83;21463;-59
2021/09/30 10:35:54;;;;;;;7.78;4.70;;;;;;;26.01;40.13;95353.53;1696681;83;21010;-60
2021/09/30 10:38:29;;;;;;;12.75;5.53;;;;;;;26.32;37.93;95347.17;1680671;83;21869;-59
2021/09/30 10:41:13;;;;;;;11.08;5.00;;;;;;;26.52;37.93;95345.88;1691642;83;21105;-58
2021/09/30 10:43:44;;;;;;;4.97;4.40;;;;;;;26.89;37.23;95355.00;1689000;83;21061;-58
2021/09/30 10:46:26;;;;;;;7.10;4.73;;;;;;;27.11;36.38;95336.94;1671640;83;21521;-57
2021/09/30 10:48:54;;;;;;;11.43;5.12;;;;;;;27.26;36.10;95334.34;1688576;83;21360;-56
2021/09/30 10:51:22;;;;;;;6.70;4.72;;;;;;;27.39;36.58;95334.37;1689739;83;21179;-56
2021/09/30 10:53:55;;;;;;;7.78;4.40;;;;;;;27.72;36.57;95333.70;1684276;83;21083;-57
2021/09/30 10:56:38;;;;;;;6.12;5.10;;;;;;;27.97;34.98;95327.25;1707285;83;21091;-56
2021/09/30 10:59:13;;;;;;;5.60;4.60;;;;;;;28.11;35.05;95330.16;1683633;83;21048;-60
2021/09/30 11:01:52;;;;;;;6.62;4.90;;;;;;;28.17;35.52;95323.72;1700882;82;21090;-58
2021/09/30 11:04:19;;;;;;;8.23;4.47;;;;;;;28.20;34.62;95326.22;1706649;83;21155;-59
2021/09/30 11:07:15;;;;;;;7.50;5.60;;;;;;;28.12;34.65;95321.14;1691883;83;21019;-58
2021/09/30 11:10:02;;;;;;;5.83;4.97;;;;;;;28.24;34.42;95323.06;1698395;82;21040;-58
2021/09/30 11:12:29;;;;;;;11.55;5.53;;;;;;;28.45;34.20;95321.05;1673183;82;21563;-58
2021/09/30 11:14:58;;;;;;;13.25;5.85;;;;;;;28.64;34.30;95325.87;1681738;82;21059;-58
2021/09/30 11:17:39;;;;;;;7.28;5.35;;;;;;;28.77;33.12;95322.31;1701554;82;21106;-57
2021/09/30 11:20:32;;;;;;;;;;;;;;;28.98;33.01;95318.83;1715339;82;21073;-62
2021/09/30 11:22:59;;;;;;;11.93;5.67;;;;;;;29.21;33.10;95316.19;1708282;82;20190;-58
2021/09/30 11:26:06;;;;;;;10.30;6.12;;;;;;;29.37;32.52;95314.33;1687851;83;21031;-58
2021/09/30 11:28:33;;;;;;;11.33;5.80;;;;;;;29.53;31.87;95317.37;1665647;83;20982;-55
2021/09/30 11:31:23;;;;;;;9.98;4.33;;;;;;;29.64;32.08;95309.97;1675160;83;21140;-57
2021/09/30 11:33:54;;;;;;;6.92;5.35;;;;;;;29.69;31.45;95316.81;1689352;83;21076;-57
2021/09/30 11:36:29;;;;;;;6.72;5.08;;;;;;;29.73;31.72;95308.05;1698974;81;21090;-58
2021/09/30 11:38:57;;;;;;;12.90;7.55;;;;;;;29.79;31.52;95307.88;1703513;81;21038;-56
2021/09/30 11:41:31;;;;;;;9.05;5.80;;;;;;;30.02;31.71;95315.17;1698525;82;21100;-56
2021/09/30 11:43:59;;;;;;;6.12;4.97;;;;;;;30.19;31.29;95307.71;1677202;83;21427;-56
2021/09/30 11:46:35;;;;;;;7.97;5.20;;;;;;;30.26;31.16;95307.62;1674427;83;21034;-55
2021/09/30 11:49:12;;;;;;;11.78;5.42;;;;;;;30.38;30.48;95303.12;1701641;82;21019;-56
2021/09/30 11:51:52;;;;;;;10.00;5.95;;;;;;;30.33;29.64;95303.38;1696051;82;21109;-57
2021/09/30 11:54:24;;;;;;;8.68;4.92;;;;;;;30.26;30.46;95301.29;1684151;83;21168;-57
2021/09/30 11:56:54;;;;;;;8.78;6.00;;;;;;;30.06;30.45;95303.59;1684193;83;21824;-63
2021/09/30 11:59:24;;;;;;;13.22;5.90;;;;;;;29.35;31.56;95299.92;1683465;83;21267;-57
2021/09/30 12:01:54;;;;;;;9.50;6.60;;;;;;;28.40;31.93;95298.63;1684329;83;21497;-56
2021/09/30 12:04:43;;;;;;;9.60;6.22;;;;;;;27.34;33.22;95302.07;1682913;83;21129;-58
2021/09/30 12:07:25;;;;;;;10.32;6.53;;;;;;;26.36;34.62;95301.08;1677065;83;20973;-56
2021/09/30 12:10:00;;;;;;;11.83;6.67;;;;;;;25.46;36.38;95299.88;1692756;82;21847;-57
2021/09/30 12:12:30;;;;;;;9.15;6.12;;;;;;;25.05;37.89;95307.76;1677557;83;21163;-59
2021/09/30 12:14:58;;;;;;;7.97;5.75;;;;;;;25.38;38.09;95296.78;1688496;82;22133;-56
2021/09/30 12:17:35;;;;;;;7.05;4.78;;;;;;;26.10;37.40;95298.79;1681861;83;21079;-59
2021/09/30 12:20:06;;;;;;;17.45;6.22;;;;;;;26.78;35.64;95286.66;1698510;82;21155;-62
2021/09/30 12:22:45;;;;;;;14.25;5.45;;;;;;;27.33;35.31;95289.24;1699368;84;26411;-62
2021/09/30 12:25:19;;;;;;;9.18;5.80;;;;;;;27.82;34.49;95295.20;1692694;82;21106;-57
2021/09/30 12:27:48;;;;;;;9.50;5.72;;;;;;;28.20;33.95;95295.76;1686389;83;21068;-59
2021/09/30 12:30:25;;;;;;;11.80;7.47;;;;;;;28.05;33.81;95297.00;1687683;83;21121;-58
2021/09/30 12:32:57;;;;;;;12.90;5.65;;;;;;;27.50;34.28;95299.57;1693392;83;21045;-68
2021/09/30 12:35:29;;;;;;;9.60;6.37;;;;;;;27.40;34.58;95297.06;1703126;82;21273;-67
2021/09/30 12:38:04;;;;;;;13.18;6.08;;;;;;;27.79;35.22;95290.64;1705720;82;21094;-60
2021/09/30 12:40:41;;;;;;;9.25;6.55;;;;;;;28.27;34.15;95295.84;1689918;82;21027;-62
2021/09/30 12:43:15;;;;;;;10.72;6.00;;;;;;;28.54;32.91;95291.60;1690169;83;20980;-65
2021/09/30 12:45:58;;;;;;;10.38;6.22;;;;;;;28.81;33.06;95290.80;1699782;81;21084;-63
2021/09/30 12:48:29;;;;;;;8.13;5.60;;;;;;;29.07;32.45;95297.09;1679941;82;21833;-63
2021/09/30 12:51:16;;;;;;;9.73;6.30;;;;;;;29.41;32.70;95296.94;1698039;82;21494;-67
2021/09/30 12:53:49;;;;;;;16.67;5.85;;;;;;;29.69;31.49;95297.70;1653679;83;21022;-65
2021/09/30 12:56:20;;;;;;;12.15;7.50;;;;;;;29.90;31.84;95296.30;1686991;82;21074;-66
2021/09/30 12:58:51;;;;;;;13.53;6.87;;;;;;;30.16;31.05;95298.13;1685175;83;21130;-64
2021/09/30 13:01:27;;;;;;;9.08;6.30;;;;;;;30.45;30.16;95297.45;1688454;83;21515;-65
2021/09/30 13:04:24;;;;;;;11.25;6.95;;;;;;;30.54;29.99;95306.09;1719444;82;21058;-62
2021/09/30 13:07:05;;;;;;;7.85;5.53;;;;;;;30.55;30.13;95298.44;1701130;82;20986;-68
2021/09/30 13:09:39;;;;;;;9.60;5.97;;;;;;;30.50;29.57;95295.09;1703030;82;21019;-67
2021/09/30 13:12:16;;;;;;;9.25;5.83;;;;;;;30.31;30.08;95296.09;1696546;83;20962;-68
2021/09/30 13:14:50;;;;;;;16.97;7.33;;;;;;;30.23;30.58;95291.06;1691508;83;21170;-64
2021/09/30 13:17:20;;;;;;;14.43;7.00;;;;;;;30.40;29.39;95300.47;1683909;82;21066;-58
2021/09/30 13:19:59;;;;;;;13.18;7.12;;;;;;;30.66;29.70;95290.98;1692678;82;21867;-62
2021/09/30 13:22:41;;;;;;;13.25;5.80;;;;;;;30.86;29.30;95290.05;1686249;83;21034;-62
2021/09/30 13:25:16;;;;;;;13.15;6.95;;;;;;;31.00;28.68;95288.55;1698400;83;21133;-59
2021/09/30 13:27:46;;;;;;;9.05;6.10;;;;;;;30.83;28.08;95297.55;1679821;83;21102;-65
2021/09/30 13:30:19;;;;;;;11.10;5.83;;;;;;;30.46;29.06;95296.13;1699533;82;21106;-62
2021/09/30 13:32:47;;;;;;;8.55;5.78;;;;;;;30.22;28.92;95295.88;1689272;82;21006;-61
2021/09/30 13:35:15;;;;;;;13.62;6.10;;;;;;;29.95;29.36;95285.44;1688669;83;21089;-62
2021/09/30 13:37:42;;;;;;;16.15;6.75;;;;;;;29.84;29.44;95283.59;1690508;82;21043;-60
2021/09/30 13:40:11;;;;;;;8.58;6.58;;;;;;;29.91;29.68;95280.79;1671701;83;21173;-57
2021/09/30 13:42:39;;;;;;;9.10;6.15;;;;;;;30.02;29.55;95289.63;1705428;82;21079;-59
2021/09/30 13:45:09;;;;;;;10.20;6.25;;;;;;;30.09;29.51;95285.42;1681871;82;21040;-63
2021/09/30 13:47:37;;;;;;;8.90;6.17;;;;;;;30.01;29.17;95286.05;1689392;82;20975;-62
2021/09/30 13:50:06;;;;;;;11.35;6.28;;;;;;;29.63;29.37;95290.66;1687876;83;21087;-61
2021/09/30 13:52:34;;;;;;;13.43;6.70;;;;;;;28.75;30.02;95290.20;1702339;82;21147;-62
2021/09/30 13:55:00;;;;;;;9.40;5.92;;;;;;;27.85;31.29;95282.14;1703850;81;20985;-60
2021/09/30 13:57:33;;;;;;;13.25;6.72;;;;;;;27.34;32.14;95279.45;1692339;82;21022;-62
2021/09/30 13:59:59;;;;;;;15.55;8.80;;;;;;;26.95;32.83;95278.00;1696698;83;21027;-60
2021/09/30 14:02:26;;;;;;;12.35;7.35;;;;;;;26.38;33.43;95278.72;1693344;82;21014;-60
2021/09/30 14:04:53;;;;;;;11.73;7.08;;;;;;;25.56;34.45;95279.13;1666025;83;21105;-61
2021/09/30 14:07:20;;;;;;;17.00;7.40;;;;;;;25.13;35.79;95278.36;1688840;82;21217;-60
2021/09/30 14:09:48;;;;;;;15.83;7.78;;;;;;;25.00;36.27;95279.65;1703844;82;21026;-61
2021/09/30 14:12:16;;;;;;;16.25;8.70;;;;;;;24.97;36.30;95283.53;1687585;82;21050;-67
2021/09/30 14:14:45;;;;;;;14.98;7.20;;;;;;;24.75;36.44;95280.94;1691982;82;21012;-59
2021/09/30 14:17:12;;;;;;;24.65;7.70;;;;;;;24.31;37.15;95277.86;1684114;81;21138;-63
2021/09/30 14:19:38;;;;;;;14.15;7.03;;;;;;;23.92;37.98;95280.82;1702273;82;21095;-61
2021/09/30 14:22:07;;;;;;;11.35;6.53;;;;;;;23.63;38.55;95280.72;1685347;82;20992;-58
2021/09/30 14:24:35;;;;;;;13.58;6.90;;;;;;;23.23;39.25;95273.75;1684555;83;21618;-59
2021/09/30 14:27:03;;;;;;;14.78;6.83;;;;;;;22.68;40.42;95277.34;1688052;82;21617;-62
2021/09/30 14:29:30;;;;;;;15.78;8.15;;;;;;;22.10;41.15;95277.73;1687261;83;21081;-59
2021/09/30 14:31:57;;;;;;;15.55;7.70;;;;;;;21.63;42.31;95275.13;1691538;83;21150;-61